INFORMAÇÕES DO AERODROMO
Icao Aerodromo SBRF Nome do Aerodromo Guararapes - Gilberto Freyre International Airport Cidade Recife
Código GPS SBRF Elevação Média 33 ft Tipo de Aerodromo Aeroporto Médio Porte

INFORMAÇÃO DE PISTA
Pista 18 Comprimento da Pista 9865 ft Largura da Pista 148 ft
Elevação da Pista 23 ft Distância de Area de Escape da Pista 0 ft Orientação da Pista 162
Pista 36 Comprimento da Pista 9865 ft Largura da Pista 148 ft
Elevação da Pista 32 ft Distância de Area de Escape da Pista 0 ft Orientação da Pista 342

FREQUÊNCIAS DO AERODROMO
Tipo APP Nome RECIFE APP Frequência 119.1 MHZ
Tipo ATIS Nome ATIS Frequência 127.65 MHZ
Tipo GND Nome GND Frequência 121.85 MHZ
Tipo OPS Nome RECIFE OPS Frequência 122.5 MHZ
Tipo TWR Nome RECIFE TWR Frequência 122.8 MHZ

INFORMAÇÕES DE NAVEGAÇÃO PRÓXIMO AO AERODROMO
Tipo VOR-DME Nome Recife Frequência 116900 KHZ

Informações de Meteorologia(METAR atual)
METAR DE SBRF
ADDS - METARS form results

(0956 UTC 26 April 2018)
Data provider http://aviationweather.gov/adds/metars/
 
METAR text: SBRF 261000Z 23005KT 180V250 9999 SCT023 26/23 Q1014
Conditions at: SBRF (RECIFE/GUARARAPE, BR) observed 1000 UTC 26 April 2018
Temperature: 26.0°C (79°F)
Dewpoint: 23.0°C (73°F) [RH = 84%]
Pressure (altimeter): 29.94 inches Hg (1014.0 mb)
Winds: from the SW (230 degrees) at 6 MPH (5 knots; 2.6 m/s)
Visibility: 6 or more miles (10+ km)
Ceiling: at least 12,000 feet AGL
Clouds: scattered clouds at 2300 feet AGL
Weather: no significant weather observed at this time

METAR text: SBRF 260900Z 15007KT 9999 SCT022 SCT060 26/22 Q1013
Conditions at: SBRF (RECIFE/GUARARAPE, BR) observed 0900 UTC 26 April 2018
Temperature: 26.0°C (79°F)
Dewpoint: 22.0°C (72°F) [RH = 79%]
Pressure (altimeter): 29.91 inches Hg (1013.0 mb)
Winds: from the SSE (150 degrees) at 8 MPH (7 knots; 3.6 m/s)
Visibility: 6 or more miles (10+ km)
Ceiling: at least 12,000 feet AGL
Clouds: scattered clouds at 2200 feet AGL
scattered clouds at 6000 feet AGL
Weather: no significant weather observed at this time

Forecast for: SBRF (RECIFE/GUARARAPE, BR)
Text: TAF SBRF 260200Z 2606/2706 15007KT 8000 SCT015 BKN040 TN24/2608Z TX29/2615Z
Forecast period: 0600 UTC 26 April 2018 to 0600 UTC 27 April 2018
Forecast type: FROM: standard forecast or significant change
Winds: from the SSE (150 degrees) at 8 MPH (7 knots; 3.6 m/s)
Visibility: 5 miles (8 km)
Ceiling: 4000 feet AGL
Clouds: scattered clouds at 1500 feet AGL
broken clouds at 4000 feet AGL
Weather: no significant weather forecast for this period
Forecast for: SBRF (RECIFE/GUARARAPE, BR)
Text: TAF SBRF 260200Z 2606/2706 15007KT 8000 SCT015 BKN040 TN24/2608Z TX29/2615Z
Forecast period: 0600 UTC 26 April 2018 to 0600 UTC 27 April 2018
Forecast type: FROM: standard forecast or significant change
Winds: from the SSE (150 degrees) at 8 MPH (7 knots; 3.6 m/s)
Visibility: 5 miles (8 km)
Ceiling: 4000 feet AGL
Clouds: scattered clouds at 1500 feet AGL
broken clouds at 4000 feet AGL
Weather: no significant weather forecast for this period
Forecast for: SBRF (RECIFE/GUARARAPE, BR)
Text: TAF SBRF 260200Z 2606/2706 15007KT 8000 SCT015 BKN040 TN24/2608Z TX29/2615Z
Forecast period: 0600 to 1000 UTC 26 April 2018
Forecast type: TEMPORARY: The following changes expected for less than half the time period
Visibility: 3 miles (5 km)
Ceiling: 2500 feet AGL
Clouds: scattered clouds at 1200 feet AGL
broken clouds at 2500 feet AGL
Weather: SHRA  (rain showers)
Forecast for: SBRF (RECIFE/GUARARAPE, BR)
Text: TAF SBRF 260200Z 2606/2706 15007KT 8000 SCT015 BKN040 TN24/2608Z TX29/2615Z
Forecast period: 0600 to 1000 UTC 26 April 2018
Forecast type: TEMPORARY: The following changes expected for less than half the time period
Visibility: 3 miles (5 km)
Ceiling: 2500 feet AGL
Clouds: scattered clouds at 1200 feet AGL
broken clouds at 2500 feet AGL
Weather: SHRA  (rain showers)

MAPA DO AERODROMO


Desenvolvido por Virtual Airlines Manager




Modificado por Servidor Brasil Amigos